sensor_id;sensor_type;location;lat;lon;timestamp;temperature;humidity
62581;DHT22;48640;48.770;9.148;2023-05-07T00:00:40;15.80;95.20
62581;DHT22;48640;48.770;9.148;2023-05-07T00:03:09;15.60;95.20
62581;DHT22;48640;48.770;9.148;2023-05-07T00:05:36;15.60;95.20
62581;DHT22;48640;48.770;9.148;2023-05-07T00:08:04;15.70;95.10
62581;DHT22;48640;48.770;9.148;2023-05-07T00:10:31;15.30;95.00
62581;DHT22;48640;48.770;9.148;2023-05-07T00:12:58;15.50;95.60
62581;DHT22;48640;48.770;9.148;2023-05-07T00:15:25;15.30;95.70
62581;DHT22;48640;48.770;9.148;2023-05-07T00:17:53;15.40;96.10
62581;DHT22;48640;48.770;9.148;2023-05-07T00:20:21;15.10;96.10
62581;DHT22;48640;48.770;9.148;2023-05-07T00:22:48;15.30;96.30
62581;DHT22;48640;48.770;9.148;2023-05-07T00:25:15;15.40;96.20
62581;DHT22;48640;48.770;9.148;2023-05-07T00:27:42;15.40;96.10
62581;DHT22;48640;48.770;9.148;2023-05-07T00:30:10;15.30;96.30
62581;DHT22;48640;48.770;9.148;2023-05-07T00:32:37;15.30;96.60
62581;DHT22;48640;48.770;9.148;2023-05-07T00:35:05;15.30;96.80
62581;DHT22;48640;48.770;9.148;2023-05-07T00:37:33;15.20;97.00
62581;DHT22;48640;48.770;9.148;2023-05-07T00:40:00;15.20;97.00
62581;DHT22;48640;48.770;9.148;2023-05-07T00:42:30;15.20;96.90
62581;DHT22;48640;48.770;9.148;2023-05-07T00:44:57;15.20;96.70
62581;DHT22;48640;48.770;9.148;2023-05-07T00:47:25;14.80;96.50
62581;DHT22;48640;48.770;9.148;2023-05-07T00:49:52;15.20;96.70
62581;DHT22;48640;48.770;9.148;2023-05-07T00:52:20;14.80;96.40
62581;DHT22;48640;48.770;9.148;2023-05-07T00:54:49;14.80;96.40
62581;DHT22;48640;48.770;9.148;2023-05-07T00:57:16;14.80;96.80
62581;DHT22;48640;48.770;9.148;2023-05-07T00:59:43;15.10;97.20
62581;DHT22;48640;48.770;9.148;2023-05-07T01:02:10;15.20;97.40
62581;DHT22;48640;48.770;9.148;2023-05-07T01:04:37;14.90;97.50
62581;DHT22;48640;48.770;9.148;2023-05-07T01:07:05;14.80;97.60
62581;DHT22;48640;48.770;9.148;2023-05-07T01:09:32;14.80;97.80
62581;DHT22;48640;48.770;9.148;2023-05-07T01:12:03;15.00;97.90
62581;DHT22;48640;48.770;9.148;2023-05-07T01:14:30;15.00;98.00
62581;DHT22;48640;48.770;9.148;2023-05-07T01:16:58;15.00;98.10
62581;DHT22;48640;48.770;9.148;2023-05-07T01:19:25;14.90;98.30
62581;DHT22;48640;48.770;9.148;2023-05-07T01:21:58;14.40;98.20
62581;DHT22;48640;48.770;9.148;2023-05-07T01:24:29;14.40;98.70
62581;DHT22;48640;48.770;9.148;2023-05-07T01:26:56;14.40;98.60
62581;DHT22;48640;48.770;9.148;2023-05-07T01:29:23;14.80;99.00
62581;DHT22;48640;48.770;9.148;2023-05-07T01:31:51;14.40;99.00
62581;DHT22;48640;48.770;9.148;2023-05-07T01:34:20;14.90;99.60
62581;DHT22;48640;48.770;9.148;2023-05-07T01:36:48;14.70;99.60
62581;DHT22;48640;48.770;9.148;2023-05-07T01:39:15;14.50;99.50
62581;DHT22;48640;48.770;9.148;2023-05-07T01:41:45;14.80;99.50
62581;DHT22;48640;48.770;9.148;2023-05-07T01:44:13;14.80;99.50
62581;DHT22;48640;48.770;9.148;2023-05-07T01:46:40;14.80;99.50
62581;DHT22;48640;48.770;9.148;2023-05-07T01:49:07;14.80;99.60
62581;DHT22;48640;48.770;9.148;2023-05-07T01:51:34;14.60;99.40
62581;DHT22;48640;48.770;9.148;2023-05-07T01:54:01;14.50;99.50
62581;DHT22;48640;48.770;9.148;2023-05-07T01:56:28;14.70;99.70
62581;DHT22;48640;48.770;9.148;2023-05-07T01:58:57;14.60;99.60
62581;DHT22;48640;48.770;9.148;2023-05-07T02:01:23;14.70;99.50
62581;DHT22;48640;48.770;9.148;2023-05-07T02:03:50;14.80;99.80
62581;DHT22;48640;48.770;9.148;2023-05-07T02:06:17;14.80;99.90
62581;DHT22;48640;48.770;9.148;2023-05-07T02:08:45;14.40;99.80
62581;DHT22;48640;48.770;9.148;2023-05-07T02:11:11;14.20;99.80
62581;DHT22;48640;48.770;9.148;2023-05-07T02:13:38;14.20;99.80
62581;DHT22;48640;48.770;9.148;2023-05-07T02:16:07;14.60;99.90
62581;DHT22;48640;48.770;9.148;2023-05-07T02:18:34;14.60;99.90
62581;DHT22;48640;48.770;9.148;2023-05-07T02:21:01;14.30;99.90
62581;DHT22;48640;48.770;9.148;2023-05-07T02:23:28;14.30;99.90
62581;DHT22;48640;48.770;9.148;2023-05-07T02:25:54;14.30;99.90
62581;DHT22;48640;48.770;9.148;2023-05-07T02:28:21;14.50;99.90
62581;DHT22;48640;48.770;9.148;2023-05-07T02:30:49;14.60;99.90
62581;DHT22;48640;48.770;9.148;2023-05-07T02:33:17;14.70;99.90
62581;DHT22;48640;48.770;9.148;2023-05-07T02:35:44;14.50;99.70
62581;DHT22;48640;48.770;9.148;2023-05-07T02:38:11;14.80;99.80
62581;DHT22;48640;48.770;9.148;2023-05-07T02:40:38;14.60;99.90
62581;DHT22;48640;48.770;9.148;2023-05-07T02:43:05;14.20;99.90
62581;DHT22;48640;48.770;9.148;2023-05-07T02:45:32;14.70;99.90
62581;DHT22;48640;48.770;9.148;2023-05-07T02:47:59;14.50;99.90
62581;DHT22;48640;48.770;9.148;2023-05-07T02:50:27;13.90;99.90
62581;DHT22;48640;48.770;9.148;2023-05-07T02:52:54;13.90;99.90
62581;DHT22;48640;48.770;9.148;2023-05-07T02:55:21;14.40;99.90
62581;DHT22;48640;48.770;9.148;2023-05-07T02:57:48;14.30;99.90
62581;DHT22;48640;48.770;9.148;2023-05-07T03:00:16;14.30;99.90
62581;DHT22;48640;48.770;9.148;2023-05-07T03:02:43;14.20;99.90
62581;DHT22;48640;48.770;9.148;2023-05-07T03:05:10;14.30;99.90
62581;DHT22;48640;48.770;9.148;2023-05-07T03:07:39;14.10;99.90
62581;DHT22;48640;48.770;9.148;2023-05-07T03:10:06;14.10;99.90
62581;DHT22;48640;48.770;9.148;2023-05-07T03:12:34;14.10;99.90
62581;DHT22;48640;48.770;9.148;2023-05-07T03:15:01;14.10;99.90
62581;DHT22;48640;48.770;9.148;2023-05-07T03:17:28;14.10;99.90
62581;DHT22;48640;48.770;9.148;2023-05-07T03:19:55;13.90;99.90
62581;DHT22;48640;48.770;9.148;2023-05-07T03:22:22;14.10;99.90
62581;DHT22;48640;48.770;9.148;2023-05-07T03:24:51;14.00;99.90
62581;DHT22;48640;48.770;9.148;2023-05-07T03:27:17;14.10;99.90
62581;DHT22;48640;48.770;9.148;2023-05-07T03:29:44;14.00;99.90
62581;DHT22;48640;48.770;9.148;2023-05-07T03:32:11;13.50;99.90
62581;DHT22;48640;48.770;9.148;2023-05-07T03:34:38;13.40;99.90
62581;DHT22;48640;48.770;9.148;2023-05-07T03:37:05;13.60;99.90
62581;DHT22;48640;48.770;9.148;2023-05-07T03:39:32;13.80;99.90
62581;DHT22;48640;48.770;9.148;2023-05-07T03:42:00;13.70;99.90
62581;DHT22;48640;48.770;9.148;2023-05-07T03:44:28;13.20;99.90
62581;DHT22;48640;48.770;9.148;2023-05-07T03:46:54;13.50;99.90
62581;DHT22;48640;48.770;9.148;2023-05-07T03:49:22;13.20;99.90
62581;DHT22;48640;48.770;9.148;2023-05-07T03:51:48;13.60;99.90
62581;DHT22;48640;48.770;9.148;2023-05-07T03:54:15;13.10;99.90
62581;DHT22;48640;48.770;9.148;2023-05-07T03:56:42;13.60;99.90
62581;DHT22;48640;48.770;9.148;2023-05-07T03:59:11;13.40;99.90
62581;DHT22;48640;48.770;9.148;2023-05-07T04:01:38;13.40;99.90
62581;DHT22;48640;48.770;9.148;2023-05-07T04:04:05;13.40;99.90
62581;DHT22;48640;48.770;9.148;2023-05-07T04:06:32;13.70;99.90
62581;DHT22;48640;48.770;9.148;2023-05-07T04:08:59;13.60;99.90
62581;DHT22;48640;48.770;9.148;2023-05-07T04:11:26;13.80;99.90
62581;DHT22;48640;48.770;9.148;2023-05-07T04:13:53;13.50;99.90
62581;DHT22;48640;48.770;9.148;2023-05-07T04:16:21;13.40;99.90
62581;DHT22;48640;48.770;9.148;2023-05-07T04:18:48;13.80;99.90
62581;DHT22;48640;48.770;9.148;2023-05-07T04:21:15;13.30;99.90
62581;DHT22;48640;48.770;9.148;2023-05-07T04:23:43;13.70;99.90
62581;DHT22;48640;48.770;9.148;2023-05-07T04:26:10;13.50;99.90
62581;DHT22;48640;48.770;9.148;2023-05-07T04:28:36;13.70;99.90
62581;DHT22;48640;48.770;9.148;2023-05-07T04:31:03;13.60;99.90
62581;DHT22;48640;48.770;9.148;2023-05-07T04:33:32;13.80;99.90
62581;DHT22;48640;48.770;9.148;2023-05-07T04:36:01;13.80;99.90
62581;DHT22;48640;48.770;9.148;2023-05-07T04:38:29;13.50;99.90
62581;DHT22;48640;48.770;9.148;2023-05-07T04:40:57;13.80;99.90
62581;DHT22;48640;48.770;9.148;2023-05-07T04:43:24;13.70;99.90
62581;DHT22;48640;48.770;9.148;2023-05-07T04:45:51;13.60;99.90
62581;DHT22;48640;48.770;9.148;2023-05-07T04:48:22;14.00;99.90
62581;DHT22;48640;48.770;9.148;2023-05-07T04:50:50;13.90;99.90
62581;DHT22;48640;48.770;9.148;2023-05-07T04:53:18;13.80;99.90
62581;DHT22;48640;48.770;9.148;2023-05-07T04:55:45;13.60;99.90
62581;DHT22;48640;48.770;9.148;2023-05-07T04:58:12;14.00;99.90
62581;DHT22;48640;48.770;9.148;2023-05-07T05:00:39;13.70;99.90
62581;DHT22;48640;48.770;9.148;2023-05-07T05:03:09;13.60;99.90
62581;DHT22;48640;48.770;9.148;2023-05-07T05:05:36;13.80;99.90
62581;DHT22;48640;48.770;9.148;2023-05-07T05:08:04;14.00;99.90
62581;DHT22;48640;48.770;9.148;2023-05-07T05:10:31;13.60;99.90
62581;DHT22;48640;48.770;9.148;2023-05-07T05:12:58;14.00;99.90
62581;DHT22;48640;48.770;9.148;2023-05-07T05:15:28;13.90;99.90
62581;DHT22;48640;48.770;9.148;2023-05-07T05:17:55;14.10;99.90
62581;DHT22;48640;48.770;9.148;2023-05-07T05:20:22;14.30;99.90
62581;DHT22;48640;48.770;9.148;2023-05-07T05:22:49;13.90;99.90
62581;DHT22;48640;48.770;9.148;2023-05-07T05:25:17;14.00;99.90
62581;DHT22;48640;48.770;9.148;2023-05-07T05:27:44;14.90;99.90
62581;DHT22;48640;48.770;9.148;2023-05-07T05:30:12;15.90;99.90
62581;DHT22;48640;48.770;9.148;2023-05-07T05:32:39;17.00;97.70
62581;DHT22;48640;48.770;9.148;2023-05-07T05:35:06;18.30;95.20
62581;DHT22;48640;48.770;9.148;2023-05-07T05:37:33;19.10;91.90
62581;DHT22;48640;48.770;9.148;2023-05-07T05:40:00;19.30;90.60
62581;DHT22;48640;48.770;9.148;2023-05-07T05:42:29;20.20;88.70
62581;DHT22;48640;48.770;9.148;2023-05-07T05:44:56;21.10;83.10
62581;DHT22;48640;48.770;9.148;2023-05-07T05:47:22;21.10;81.90
62581;DHT22;48640;48.770;9.148;2023-05-07T05:49:49;21.90;78.10
62581;DHT22;48640;48.770;9.148;2023-05-07T05:52:16;22.20;75.30
62581;DHT22;48640;48.770;9.148;2023-05-07T05:54:43;22.00;76.80
62581;DHT22;48640;48.770;9.148;2023-05-07T05:57:10;21.90;76.90
62581;DHT22;48640;48.770;9.148;2023-05-07T05:59:38;21.70;76.80
62581;DHT22;48640;48.770;9.148;2023-05-07T06:02:06;21.50;75.90
62581;DHT22;48640;48.770;9.148;2023-05-07T06:04:33;21.40;76.60
62581;DHT22;48640;48.770;9.148;2023-05-07T06:06:59;21.10;77.10
62581;DHT22;48640;48.770;9.148;2023-05-07T06:09:26;20.60;78.40
62581;DHT22;48640;48.770;9.148;2023-05-07T06:11:53;20.40;79.30
62581;DHT22;48640;48.770;9.148;2023-05-07T06:14:20;20.20;80.80
62581;DHT22;48640;48.770;9.148;2023-05-07T06:16:49;20.00;80.30
62581;DHT22;48640;48.770;9.148;2023-05-07T06:19:16;20.20;81.40
62581;DHT22;48640;48.770;9.148;2023-05-07T06:21:48;20.30;81.10
62581;DHT22;48640;48.770;9.148;2023-05-07T06:24:15;20.40;79.40
62581;DHT22;48640;48.770;9.148;2023-05-07T06:26:42;20.20;80.90
62581;DHT22;48640;48.770;9.148;2023-05-07T06:29:08;19.70;83.50
62581;DHT22;48640;48.770;9.148;2023-05-07T06:31:35;19.20;83.70
62581;DHT22;48640;48.770;9.148;2023-05-07T06:34:03;19.50;83.20
62581;DHT22;48640;48.770;9.148;2023-05-07T06:36:30;19.40;82.50
62581;DHT22;48640;48.770;9.148;2023-05-07T06:38:57;19.30;84.70
62581;DHT22;48640;48.770;9.148;2023-05-07T06:41:24;19.10;86.00
62581;DHT22;48640;48.770;9.148;2023-05-07T06:43:51;18.90;85.60
62581;DHT22;48640;48.770;9.148;2023-05-07T06:46:18;18.80;86.10
62581;DHT22;48640;48.770;9.148;2023-05-07T06:48:45;18.90;85.20
62581;DHT22;48640;48.770;9.148;2023-05-07T06:51:13;18.80;85.60
62581;DHT22;48640;48.770;9.148;2023-05-07T06:53:40;19.10;87.40
62581;DHT22;48640;48.770;9.148;2023-05-07T06:56:07;19.30;87.30
62581;DHT22;48640;48.770;9.148;2023-05-07T06:58:33;19.80;84.00
62581;DHT22;48640;48.770;9.148;2023-05-07T07:01:00;20.10;81.70
62581;DHT22;48640;48.770;9.148;2023-05-07T07:03:27;20.50;79.80
62581;DHT22;48640;48.770;9.148;2023-05-07T07:05:54;20.60;78.10
62581;DHT22;48640;48.770;9.148;2023-05-07T07:08:22;20.80;77.50
62581;DHT22;48640;48.770;9.148;2023-05-07T07:10:49;20.90;76.60
62581;DHT22;48640;48.770;9.148;2023-05-07T07:13:16;20.90;77.20
62581;DHT22;48640;48.770;9.148;2023-05-07T07:15:43;21.10;77.90
62581;DHT22;48640;48.770;9.148;2023-05-07T07:18:10;21.40;77.30
62581;DHT22;48640;48.770;9.148;2023-05-07T07:20:37;21.70;73.60
62581;DHT22;48640;48.770;9.148;2023-05-07T07:23:04;21.60;74.40
62581;DHT22;48640;48.770;9.148;2023-05-07T07:25:32;22.10;74.50
62581;DHT22;48640;48.770;9.148;2023-05-07T07:27:59;23.00;71.60
62581;DHT22;48640;48.770;9.148;2023-05-07T07:30:26;23.90;67.50
62581;DHT22;48640;48.770;9.148;2023-05-07T07:32:53;24.80;63.60
62581;DHT22;48640;48.770;9.148;2023-05-07T07:35:20;25.90;60.30
62581;DHT22;48640;48.770;9.148;2023-05-07T07:37:48;26.20;57.20
62581;DHT22;48640;48.770;9.148;2023-05-07T07:40:15;26.60;56.20
62581;DHT22;48640;48.770;9.148;2023-05-07T07:42:44;27.40;55.00
62581;DHT22;48640;48.770;9.148;2023-05-07T07:45:11;27.80;54.40
62581;DHT22;48640;48.770;9.148;2023-05-07T07:47:38;28.70;50.30
62581;DHT22;48640;48.770;9.148;2023-05-07T07:50:06;28.30;50.10
62581;DHT22;48640;48.770;9.148;2023-05-07T07:52:33;27.30;52.20
62581;DHT22;48640;48.770;9.148;2023-05-07T07:55:00;26.50;54.20
62581;DHT22;48640;48.770;9.148;2023-05-07T07:57:27;26.60;53.50
62581;DHT22;48640;48.770;9.148;2023-05-07T07:59:55;26.10;53.40
62581;DHT22;48640;48.770;9.148;2023-05-07T08:02:22;26.30;53.20
62581;DHT22;48640;48.770;9.148;2023-05-07T08:04:49;26.10;54.20
62581;DHT22;48640;48.770;9.148;2023-05-07T08:07:16;26.30;53.30
62581;DHT22;48640;48.770;9.148;2023-05-07T08:09:44;26.60;53.30
62581;DHT22;48640;48.770;9.148;2023-05-07T08:12:11;25.70;53.70
62581;DHT22;48640;48.770;9.148;2023-05-07T08:14:38;25.10;55.40
62581;DHT22;48640;48.770;9.148;2023-05-07T08:17:06;25.50;56.40
62581;DHT22;48640;48.770;9.148;2023-05-07T08:19:35;25.10;55.60
62581;DHT22;48640;48.770;9.148;2023-05-07T08:22:02;25.70;55.20
62581;DHT22;48640;48.770;9.148;2023-05-07T08:24:29;26.20;55.10
62581;DHT22;48640;48.770;9.148;2023-05-07T08:26:56;27.20;53.40
62581;DHT22;48640;48.770;9.148;2023-05-07T08:29:23;28.40;50.80
62581;DHT22;48640;48.770;9.148;2023-05-07T08:31:49;30.40;46.70
62581;DHT22;48640;48.770;9.148;2023-05-07T08:34:18;30.80;44.30
62581;DHT22;48640;48.770;9.148;2023-05-07T08:36:44;29.80;45.20
62581;DHT22;48640;48.770;9.148;2023-05-07T08:39:14;29.30;45.00
62581;DHT22;48640;48.770;9.148;2023-05-07T08:41:44;28.80;47.90
62581;DHT22;48640;48.770;9.148;2023-05-07T08:44:12;29.00;47.50
62581;DHT22;48640;48.770;9.148;2023-05-07T08:46:39;29.00;46.00
62581;DHT22;48640;48.770;9.148;2023-05-07T08:49:07;29.50;45.10
62581;DHT22;48640;48.770;9.148;2023-05-07T08:51:36;29.20;46.30
62581;DHT22;48640;48.770;9.148;2023-05-07T08:54:03;30.30;45.30
62581;DHT22;48640;48.770;9.148;2023-05-07T08:56:31;31.20;42.90
62581;DHT22;48640;48.770;9.148;2023-05-07T08:58:58;31.70;41.20
62581;DHT22;48640;48.770;9.148;2023-05-07T09:01:25;32.20;40.20
62581;DHT22;48640;48.770;9.148;2023-05-07T09:03:53;33.10;38.90
62581;DHT22;48640;48.770;9.148;2023-05-07T09:06:20;34.20;36.70
62581;DHT22;48640;48.770;9.148;2023-05-07T09:08:52;33.70;37.80
62581;DHT22;48640;48.770;9.148;2023-05-07T09:11:20;31.30;38.10
62581;DHT22;48640;48.770;9.148;2023-05-07T09:13:48;31.10;40.80
62581;DHT22;48640;48.770;9.148;2023-05-07T09:16:15;31.90;39.20
62581;DHT22;48640;48.770;9.148;2023-05-07T09:18:43;32.80;37.30
62581;DHT22;48640;48.770;9.148;2023-05-07T09:21:10;32.70;36.50
62581;DHT22;48640;48.770;9.148;2023-05-07T09:23:38;31.50;39.90
62581;DHT22;48640;48.770;9.148;2023-05-07T09:26:07;31.00;38.90
62581;DHT22;48640;48.770;9.148;2023-05-07T09:28:39;31.30;38.80
62581;DHT22;48640;48.770;9.148;2023-05-07T09:31:06;30.50;39.90
62581;DHT22;48640;48.770;9.148;2023-05-07T09:33:33;31.10;39.70
62581;DHT22;48640;48.770;9.148;2023-05-07T09:36:02;31.70;40.00
62581;DHT22;48640;48.770;9.148;2023-05-07T09:38:30;32.70;37.60
62581;DHT22;48640;48.770;9.148;2023-05-07T09:41:09;33.00;36.20
62581;DHT22;48640;48.770;9.148;2023-05-07T09:43:37;33.10;36.30
62581;DHT22;48640;48.770;9.148;2023-05-07T09:46:08;32.50;36.80
62581;DHT22;48640;48.770;9.148;2023-05-07T09:48:37;33.50;35.40
62581;DHT22;48640;48.770;9.148;2023-05-07T09:51:15;33.00;35.10
62581;DHT22;48640;48.770;9.148;2023-05-07T09:53:45;31.90;35.70
62581;DHT22;48640;48.770;9.148;2023-05-07T09:56:14;31.00;37.50
62581;DHT22;48640;48.770;9.148;2023-05-07T09:58:43;30.40;38.90
62581;DHT22;48640;48.770;9.148;2023-05-07T10:01:12;30.80;38.70
62581;DHT22;48640;48.770;9.148;2023-05-07T10:03:40;30.10;38.80
62581;DHT22;48640;48.770;9.148;2023-05-07T10:06:08;30.30;41.20
62581;DHT22;48640;48.770;9.148;2023-05-07T10:08:36;31.70;38.40
62581;DHT22;48640;48.770;9.148;2023-05-07T10:11:04;31.40;38.50
62581;DHT22;48640;48.770;9.148;2023-05-07T10:13:32;31.30;38.70
62581;DHT22;48640;48.770;9.148;2023-05-07T10:16:00;30.60;39.00
62581;DHT22;48640;48.770;9.148;2023-05-07T10:18:28;29.80;41.10
62581;DHT22;48640;48.770;9.148;2023-05-07T10:21:02;29.80;41.40
62581;DHT22;48640;48.770;9.148;2023-05-07T10:23:31;30.80;40.10
62581;DHT22;48640;48.770;9.148;2023-05-07T10:26:00;30.70;39.20
62581;DHT22;48640;48.770;9.148;2023-05-07T10:28:29;30.80;38.80
62581;DHT22;48640;48.770;9.148;2023-05-07T10:31:08;30.60;38.20
62581;DHT22;48640;48.770;9.148;2023-05-07T10:33:37;30.20;40.30
62581;DHT22;48640;48.770;9.148;2023-05-07T10:36:05;31.80;37.90
62581;DHT22;48640;48.770;9.148;2023-05-07T10:38:33;32.20;36.70
62581;DHT22;48640;48.770;9.148;2023-05-07T10:41:00;33.00;36.30
62581;DHT22;48640;48.770;9.148;2023-05-07T10:43:42;34.00;33.70
62581;DHT22;48640;48.770;9.148;2023-05-07T10:46:11;33.80;34.30
62581;DHT22;48640;48.770;9.148;2023-05-07T10:49:08;33.10;33.40
62581;DHT22;48640;48.770;9.148;2023-05-07T10:51:37;31.20;37.00
62581;DHT22;48640;48.770;9.148;2023-05-07T10:54:22;30.10;38.10
62581;DHT22;48640;48.770;9.148;2023-05-07T10:56:50;30.10;40.80
62581;DHT22;48640;48.770;9.148;2023-05-07T10:59:35;30.00;41.50
62581;DHT22;48640;48.770;9.148;2023-05-07T11:02:09;30.60;39.50
62581;DHT22;48640;48.770;9.148;2023-05-07T11:04:37;31.20;38.40
62581;DHT22;48640;48.770;9.148;2023-05-07T11:07:26;31.10;38.20
62581;DHT22;48640;48.770;9.148;2023-05-07T11:10:03;31.50;38.80
62581;DHT22;48640;48.770;9.148;2023-05-07T11:12:50;30.80;36.60
62581;DHT22;48640;48.770;9.148;2023-05-07T11:15:38;29.80;38.80
62581;DHT22;48640;48.770;9.148;2023-05-07T11:18:09;28.20;41.40
62581;DHT22;48640;48.770;9.148;2023-05-07T11:26:48;26.60;46.70
62581;DHT22;48640;48.770;9.148;2023-05-07T11:29:16;26.40;48.30
62581;DHT22;48640;48.770;9.148;2023-05-07T11:31:43;26.20;48.50
62581;DHT22;48640;48.770;9.148;2023-05-07T11:34:11;26.40;48.40
62581;DHT22;48640;48.770;9.148;2023-05-07T11:36:42;26.20;46.40
62581;DHT22;48640;48.770;9.148;2023-05-07T11:39:26;25.30;47.50
62581;DHT22;48640;48.770;9.148;2023-05-07T11:41:53;25.40;48.40
62581;DHT22;48640;48.770;9.148;2023-05-07T11:44:20;25.30;48.40
62581;DHT22;48640;48.770;9.148;2023-05-07T11:46:47;25.20;47.60
62581;DHT22;48640;48.770;9.148;2023-05-07T11:49:16;25.10;47.20
62581;DHT22;48640;48.770;9.148;2023-05-07T11:51:43;25.10;49.20
62581;DHT22;48640;48.770;9.148;2023-05-07T11:54:15;24.70;50.10
62581;DHT22;48640;48.770;9.148;2023-05-07T11:56:43;24.60;52.60
62581;DHT22;48640;48.770;9.148;2023-05-07T11:59:10;24.30;54.00
62581;DHT22;48640;48.770;9.148;2023-05-07T12:01:37;24.20;57.60
62581;DHT22;48640;48.770;9.148;2023-05-07T12:04:04;23.90;60.10
62581;DHT22;48640;48.770;9.148;2023-05-07T12:06:36;23.50;64.70
62581;DHT22;48640;48.770;9.148;2023-05-07T12:09:03;23.30;66.10
62581;DHT22;48640;48.770;9.148;2023-05-07T12:11:32;22.90;73.30
62581;DHT22;48640;48.770;9.148;2023-05-07T12:13:59;22.50;79.80
62581;DHT22;48640;48.770;9.148;2023-05-07T12:16:26;22.00;85.00
62581;DHT22;48640;48.770;9.148;2023-05-07T12:18:53;21.50;89.70
62581;DHT22;48640;48.770;9.148;2023-05-07T12:21:20;21.10;93.40
62581;DHT22;48640;48.770;9.148;2023-05-07T12:23:49;20.70;90.50
62581;DHT22;48640;48.770;9.148;2023-05-07T12:26:16;20.40;94.50
62581;DHT22;48640;48.770;9.148;2023-05-07T12:28:43;20.00;97.00
62581;DHT22;48640;48.770;9.148;2023-05-07T12:31:10;19.80;99.30
62581;DHT22;48640;48.770;9.148;2023-05-07T12:33:36;19.60;99.90
62581;DHT22;48640;48.770;9.148;2023-05-07T12:36:06;19.40;99.90
62581;DHT22;48640;48.770;9.148;2023-05-07T12:38:36;19.30;99.90
62581;DHT22;48640;48.770;9.148;2023-05-07T12:41:06;19.10;99.90
62581;DHT22;48640;48.770;9.148;2023-05-07T12:43:33;19.10;99.90
62581;DHT22;48640;48.770;9.148;2023-05-07T12:46:03;19.00;99.90
62581;DHT22;48640;48.770;9.148;2023-05-07T12:48:30;18.90;99.90
62581;DHT22;48640;48.770;9.148;2023-05-07T12:50:58;17.30;99.90
62581;DHT22;48640;48.770;9.148;2023-05-07T12:53:28;16.10;99.90
62581;DHT22;48640;48.770;9.148;2023-05-07T12:55:56;15.70;99.90
62581;DHT22;48640;48.770;9.148;2023-05-07T12:58:27;15.70;99.90
62581;DHT22;48640;48.770;9.148;2023-05-07T13:00:55;15.80;99.90
62581;DHT22;48640;48.770;9.148;2023-05-07T13:03:25;15.50;99.90
62581;DHT22;48640;48.770;9.148;2023-05-07T13:05:52;15.50;99.90
62581;DHT22;48640;48.770;9.148;2023-05-07T13:08:28;15.40;99.90
62581;DHT22;48640;48.770;9.148;2023-05-07T13:10:56;15.80;99.90
62581;DHT22;48640;48.770;9.148;2023-05-07T13:13:23;15.60;99.90
62581;DHT22;48640;48.770;9.148;2023-05-07T13:15:51;15.70;99.90
62581;DHT22;48640;48.770;9.148;2023-05-07T13:18:18;14.70;99.90
62581;DHT22;48640;48.770;9.148;2023-05-07T13:20:45;15.10;99.90
62581;DHT22;48640;48.770;9.148;2023-05-07T13:23:12;15.10;99.90
62581;DHT22;48640;48.770;9.148;2023-05-07T13:25:38;15.10;99.90
62581;DHT22;48640;48.770;9.148;2023-05-07T13:28:05;14.70;99.90
62581;DHT22;48640;48.770;9.148;2023-05-07T13:30:32;14.70;99.90
62581;DHT22;48640;48.770;9.148;2023-05-07T13:33:00;15.20;99.90
62581;DHT22;48640;48.770;9.148;2023-05-07T13:35:27;14.80;99.90
62581;DHT22;48640;48.770;9.148;2023-05-07T13:37:54;15.10;99.90
62581;DHT22;48640;48.770;9.148;2023-05-07T13:40:21;15.00;99.90
62581;DHT22;48640;48.770;9.148;2023-05-07T13:42:48;15.10;99.90
62581;DHT22;48640;48.770;9.148;2023-05-07T13:45:16;15.30;99.90
62581;DHT22;48640;48.770;9.148;2023-05-07T13:47:43;15.40;99.90
62581;DHT22;48640;48.770;9.148;2023-05-07T13:50:11;15.30;99.90
62581;DHT22;48640;48.770;9.148;2023-05-07T13:52:41;15.20;99.90
62581;DHT22;48640;48.770;9.148;2023-05-07T13:55:08;15.40;99.90
62581;DHT22;48640;48.770;9.148;2023-05-07T13:57:35;15.80;99.90
62581;DHT22;48640;48.770;9.148;2023-05-07T14:00:03;15.90;99.90
62581;DHT22;48640;48.770;9.148;2023-05-07T14:02:30;16.10;99.90
62581;DHT22;48640;48.770;9.148;2023-05-07T14:04:57;15.30;99.90
62581;DHT22;48640;48.770;9.148;2023-05-07T14:07:25;15.40;99.90
62581;DHT22;48640;48.770;9.148;2023-05-07T14:09:52;15.30;99.90
62581;DHT22;48640;48.770;9.148;2023-05-07T14:12:19;15.30;99.90
62581;DHT22;48640;48.770;9.148;2023-05-07T14:14:46;15.30;99.90
62581;DHT22;48640;48.770;9.148;2023-05-07T14:17:15;15.10;99.90
62581;DHT22;48640;48.770;9.148;2023-05-07T14:19:42;15.60;99.90
62581;DHT22;48640;48.770;9.148;2023-05-07T14:22:09;15.60;99.90
62581;DHT22;48640;48.770;9.148;2023-05-07T14:24:37;15.50;99.90
62581;DHT22;48640;48.770;9.148;2023-05-07T14:27:05;15.40;99.90
62581;DHT22;48640;48.770;9.148;2023-05-07T14:29:32;15.80;99.90
62581;DHT22;48640;48.770;9.148;2023-05-07T14:32:01;15.90;99.90
62581;DHT22;48640;48.770;9.148;2023-05-07T14:34:27;15.60;99.90
62581;DHT22;48640;48.770;9.148;2023-05-07T14:36:54;15.70;99.90
62581;DHT22;48640;48.770;9.148;2023-05-07T14:39:21;15.80;99.90
62581;DHT22;48640;48.770;9.148;2023-05-07T14:41:49;15.60;99.90
62581;DHT22;48640;48.770;9.148;2023-05-07T14:44:16;15.60;99.90
62581;DHT22;48640;48.770;9.148;2023-05-07T14:46:43;15.70;99.90
62581;DHT22;48640;48.770;9.148;2023-05-07T14:49:10;16.00;99.90
62581;DHT22;48640;48.770;9.148;2023-05-07T14:51:42;15.60;99.90
62581;DHT22;48640;48.770;9.148;2023-05-07T14:54:09;15.70;99.90
62581;DHT22;48640;48.770;9.148;2023-05-07T14:56:36;16.10;99.90
62581;DHT22;48640;48.770;9.148;2023-05-07T14:59:05;15.90;99.90
62581;DHT22;48640;48.770;9.148;2023-05-07T15:01:32;16.10;99.90
62581;DHT22;48640;48.770;9.148;2023-05-07T15:04:00;16.20;99.90
62581;DHT22;48640;48.770;9.148;2023-05-07T15:06:27;16.20;99.90
62581;DHT22;48640;48.770;9.148;2023-05-07T15:08:54;16.20;99.90
62581;DHT22;48640;48.770;9.148;2023-05-07T15:11:22;16.30;99.90
62581;DHT22;48640;48.770;9.148;2023-05-07T15:13:49;15.90;99.90
62581;DHT22;48640;48.770;9.148;2023-05-07T15:16:17;16.40;99.90
62581;DHT22;48640;48.770;9.148;2023-05-07T15:18:44;16.10;99.90
62581;DHT22;48640;48.770;9.148;2023-05-07T15:21:11;16.60;99.90
62581;DHT22;48640;48.770;9.148;2023-05-07T15:23:38;16.70;99.90
62581;DHT22;48640;48.770;9.148;2023-05-07T15:26:06;16.80;99.90
62581;DHT22;48640;48.770;9.148;2023-05-07T15:28:33;16.60;99.90
62581;DHT22;48640;48.770;9.148;2023-05-07T15:31:00;16.80;99.90
62581;DHT22;48640;48.770;9.148;2023-05-07T15:33:28;16.60;99.90
62581;DHT22;48640;48.770;9.148;2023-05-07T15:35:55;16.80;99.90
62581;DHT22;48640;48.770;9.148;2023-05-07T15:38:24;17.00;99.90
62581;DHT22;48640;48.770;9.148;2023-05-07T15:40:51;17.20;99.90